Weather History for KTTF - November, 2013

Change the Weather History Date:

Friday, November 8, 2013

  Actual Average Record
Temperature  
Mean Temperature 38 °F -  
Max Temperature 44 °F 50 °F 69 °F (2011)
Min Temperature 33 °F 34 °F 14 °F (1991)
Degree Days  
Heating Degree Days 26    
Moisture  
Dew Point 28 °F    
Average Humidity 70    
Maximum Humidity 87    
Minimum Humidity 39    
Precipitation  
Precipitation 0.00 in - - ()
Sea Level Pressure  
Sea Level Pressure 30.21 in    
Wind  
Wind Speed 7 mph (WSW)    
Max Wind Speed 10 mph    
Max Gust Speed 16 mph    
Visibility 10 miles    
Events      
Averages and records for this station are not official NWS values.
T = Trace of Precipitation, MM = Missing Value Source: NWS Daily Summary

Daily Weather History Graph

Daily Weather History Graph

Search for Another Location

Airport or City:

Trip Planner

Search our weather history database for the weather conditions in past years. The results will help you decide how hot, cold, wet, or windy it might be!

Date:

Astronomy

Nov. 08, 2013 Rise Set
Actual Time 7:15 AM EST 5:19 PM EST
Civil Twilight 6:45 AM EST 5:48 PM EST
Nautical Twilight 6:12 AM EST 6:22 PM EST
Astronomical Twilight 5:39 AM EST 6:54 PM EST
Moon 12:10 PM EST (11/8) 10:39 PM EST (11/8)
Length of Visible Light 11h 03m
Length of Day
10h 04m
Waxing Crescent, 33% of the Moon is Illuminated
Nov 8
Waxing Crescent
Nov 10
First Quarter
Nov 17
Full
Nov 25
Last Quarter
Dec 2
New

Hourly Weather History & Observations

Time (EST) Temp. Windchill Dew Point Humidity Pressure Visibility Wind Dir Wind Speed Gust Speed Precip Events Conditions
12:14 AM 37.4 °F 30.3 °F 33.8 °F 87% 30.12 in 10.0 mi West 10.4 mph - N/A   Overcast
12:34 AM 35.6 °F 29.2 °F 32.0 °F 87% 30.12 in 10.0 mi West 8.1 mph - N/A   Scattered Clouds
12:54 AM 35.6 °F 29.2 °F 32.0 °F 87% 30.13 in 10.0 mi West 8.1 mph - N/A   Scattered Clouds
1:14 AM 35.6 °F 31.7 °F 32.0 °F 87% 30.13 in 10.0 mi West 4.6 mph - N/A   Scattered Clouds
1:34 AM 35.6 °F 31.7 °F 32.0 °F 87% 30.13 in 10.0 mi WNW 4.6 mph - N/A   Mostly Cloudy
1:55 AM 35.6 °F 31.7 °F 32.0 °F 87% 30.13 in 10.0 mi WNW 4.6 mph - N/A   Overcast
2:15 AM 35.6 °F 30.7 °F 32.0 °F 87% 30.14 in 10.0 mi West 5.8 mph - N/A   Overcast
2:35 AM 35.6 °F 30.7 °F 30.2 °F 81% 30.14 in 10.0 mi West 5.8 mph - N/A   Overcast
2:55 AM 35.6 °F 30.7 °F 30.2 °F 81% 30.15 in 10.0 mi West 5.8 mph - N/A   Overcast
3:15 AM 35.6 °F 31.7 °F 30.2 °F 81% 30.14 in 10.0 mi WSW 4.6 mph - N/A   Overcast
3:35 AM 35.6 °F 31.7 °F 32.0 °F 87% 30.15 in 10.0 mi West 4.6 mph - N/A   Overcast
3:55 AM 35.6 °F 29.2 °F 30.2 °F 81% 30.15 in 10.0 mi WSW 8.1 mph - N/A   Overcast
4:15 AM 35.6 °F 30.7 °F 30.2 °F 81% 30.15 in 10.0 mi West 5.8 mph - N/A   Overcast
4:36 AM 35.6 °F 29.2 °F 30.2 °F 81% 30.16 in 10.0 mi West 8.1 mph - N/A   Overcast
4:56 AM 35.6 °F 31.7 °F 30.2 °F 81% 30.16 in 10.0 mi West 4.6 mph - N/A   Overcast
5:16 AM 35.6 °F 29.2 °F 30.2 °F 81% 30.17 in 10.0 mi West 8.1 mph - N/A   Overcast
5:36 AM 35.6 °F 29.2 °F 30.2 °F 81% 30.18 in 10.0 mi West 8.1 mph - N/A   Overcast
5:56 AM 35.6 °F 29.9 °F 30.2 °F 81% 30.19 in 10.0 mi West 6.9 mph - N/A   Overcast
6:16 AM 33.8 °F 27.0 °F 30.2 °F 87% 30.20 in 10.0 mi West 8.1 mph - N/A   Mostly Cloudy
6:36 AM 33.8 °F 27.7 °F 30.2 °F 87% 30.20 in 10.0 mi West 6.9 mph - N/A   Scattered Clouds
6:56 AM 33.8 °F 28.6 °F 30.2 °F 87% 30.21 in 10.0 mi West 5.8 mph - N/A   Mostly Cloudy
7:16 AM 33.8 °F 27.7 °F 30.2 °F 87% 30.22 in 10.0 mi West 6.9 mph - N/A   Overcast
7:36 AM 33.8 °F 27.7 °F 30.2 °F 87% 30.23 in 10.0 mi West 6.9 mph - N/A   Overcast
7:56 AM 35.6 °F 29.9 °F 30.2 °F 81% 30.24 in 10.0 mi West 6.9 mph - N/A   Overcast
8:16 AM 35.6 °F 29.2 °F 30.2 °F 81% 30.25 in 10.0 mi West 8.1 mph - N/A   Overcast
8:36 AM 35.6 °F 29.2 °F 30.2 °F 81% 30.26 in 10.0 mi West 8.1 mph - N/A   Mostly Cloudy
8:52 AM 37.4 °F 30.8 °F 32.0 °F 81% 30.26 in 10.0 mi West 9.2 mph - N/A   Scattered Clouds
9:12 AM 37.4 °F 30.3 °F 30.2 °F 75% 30.27 in 10.0 mi West 10.4 mph - N/A   Clear
9:32 AM 39.2 °F 32.5 °F 30.2 °F 70% 30.27 in 10.0 mi WNW 10.4 mph - N/A   Clear
9:52 AM 39.2 °F 32.5 °F 28.4 °F 65% 30.27 in 10.0 mi WNW 10.4 mph 16.1 mph N/A   Clear
10:12 AM 41.0 °F 34.7 °F 28.4 °F 61% 30.27 in 10.0 mi West 10.4 mph - N/A   Clear
10:32 AM 41.0 °F 37.1 °F 26.6 °F 57% 30.27 in 10.0 mi West 5.8 mph - N/A   Clear
10:52 AM 42.8 °F 37.0 °F 26.6 °F 53% 30.28 in 10.0 mi West 10.4 mph - N/A   Clear
11:13 AM 42.8 °F 38.6 °F 26.6 °F 53% 30.27 in 10.0 mi West 6.9 mph - N/A   Clear
11:33 AM 44.6 °F 39.7 °F 26.6 °F 49% 30.27 in 10.0 mi WSW 9.2 mph - N/A   Scattered Clouds
11:53 AM 42.8 °F 39.3 °F 24.8 °F 49% 30.27 in 10.0 mi WSW 5.8 mph 9.2 mph N/A   Mostly Cloudy
12:13 PM 42.8 °F 37.0 °F 23.0 °F 46% 30.26 in 10.0 mi WNW 10.4 mph 16.1 mph N/A   Mostly Cloudy
12:33 PM 42.8 °F 37.0 °F 23.0 °F 46% 30.26 in 10.0 mi West 10.4 mph - N/A   Overcast
12:53 PM 44.6 °F 40.7 °F 23.0 °F 43% 30.26 in 10.0 mi West 6.9 mph 10.4 mph N/A   Mostly Cloudy
1:13 PM 42.8 °F 37.0 °F 24.8 °F 49% 30.26 in 10.0 mi West 10.4 mph - N/A   Scattered Clouds
1:33 PM 44.6 °F 39.7 °F 23.0 °F 43% 30.25 in 10.0 mi West 9.2 mph - N/A   Scattered Clouds
1:54 PM 44.6 °F 39.7 °F 23.0 °F 43% 30.24 in 10.0 mi WSW 9.2 mph - N/A   Mostly Cloudy
2:14 PM 44.6 °F 40.2 °F 21.2 °F 39% 30.24 in 10.0 mi West 8.1 mph - N/A   Mostly Cloudy
2:34 PM 44.6 °F 40.2 °F 21.2 °F 39% 30.23 in 10.0 mi WNW 8.1 mph - N/A   Scattered Clouds
2:54 PM 44.6 °F 40.2 °F 24.8 °F 46% 30.23 in 10.0 mi WSW 8.1 mph - N/A   Scattered Clouds
3:14 PM 44.6 °F 40.2 °F 24.8 °F 46% 30.23 in 10.0 mi WSW 8.1 mph - N/A   Scattered Clouds
3:34 PM 44.6 °F 39.2 °F 24.8 °F 46% 30.23 in 10.0 mi SW 10.4 mph - N/A   Scattered Clouds
3:54 PM 44.6 °F 41.4 °F 23.0 °F 43% 30.23 in 10.0 mi WSW 5.8 mph - N/A   Clear
4:14 PM 42.8 °F 38.0 °F 24.8 °F 49% 30.24 in 10.0 mi WSW 8.1 mph - N/A   Scattered Clouds
4:34 PM 42.8 °F 38.0 °F 26.6 °F 53% 30.23 in 10.0 mi SW 8.1 mph - N/A   Clear
4:54 PM 42.8 °F 39.3 °F 26.6 °F 53% 30.23 in 10.0 mi SW 5.8 mph - N/A   Clear
5:14 PM 39.2 °F 35.9 °F 26.6 °F 61% 30.23 in 10.0 mi SW 4.6 mph - N/A   Clear
5:35 PM 39.2 °F - 26.6 °F 61% 30.23 in 10.0 mi Calm Calm - N/A   Clear
5:55 PM 35.6 °F 32.8 °F 28.4 °F 75% 30.22 in 10.0 mi South 3.5 mph - N/A   Clear
6:15 PM 35.6 °F - 28.4 °F 75% 30.22 in 10.0 mi Calm Calm - N/A   Clear
6:35 PM 35.6 °F - 28.4 °F 75% 30.23 in 10.0 mi Calm Calm - N/A   Clear
6:55 PM 35.6 °F - 26.6 °F 70% 30.22 in 10.0 mi Calm Calm - N/A   Clear
7:15 PM 33.8 °F 30.8 °F 28.4 °F 81% 30.22 in 10.0 mi South 3.5 mph - N/A   Clear
7:35 PM 33.8 °F - 28.4 °F 81% 30.22 in 10.0 mi Calm Calm - N/A   Clear
7:55 PM 33.8 °F - 28.4 °F 81% 30.22 in 10.0 mi Calm Calm - N/A   Clear
8:16 PM 33.8 °F 30.8 °F 28.4 °F 81% 30.22 in 10.0 mi South 3.5 mph - N/A   Clear
8:36 PM 35.6 °F 31.7 °F 26.6 °F 70% 30.21 in 10.0 mi South 4.6 mph - N/A   Clear
8:56 PM 35.6 °F 32.8 °F 26.6 °F 70% 30.21 in 10.0 mi South 3.5 mph - N/A   Clear
9:16 PM 35.6 °F 31.7 °F 28.4 °F 75% 30.21 in 10.0 mi South 4.6 mph - N/A   Clear
9:36 PM 35.6 °F 31.7 °F 28.4 °F 75% 30.21 in 10.0 mi South 4.6 mph - N/A   Clear
9:56 PM 35.6 °F 31.7 °F 28.4 °F 75% 30.20 in 10.0 mi South 4.6 mph - N/A   Clear
10:16 PM 35.6 °F 31.7 °F 28.4 °F 75% 30.20 in 10.0 mi South 4.6 mph - N/A   Scattered Clouds
10:36 PM 37.4 °F 33.8 °F 30.2 °F 75% 30.20 in 10.0 mi South 4.6 mph - N/A   Mostly Cloudy
10:56 PM 37.4 °F 32.8 °F 30.2 °F 75% 30.19 in 10.0 mi South 5.8 mph - N/A   Mostly Cloudy
11:16 PM 37.4 °F 32.8 °F 32.0 °F 81% 30.19 in 10.0 mi South 5.8 mph - N/A   Overcast
11:36 PM 37.4 °F 32.8 °F 30.2 °F 75% 30.18 in 10.0 mi South 5.8 mph - N/A   Scattered Clouds
11:56 PM 37.4 °F 31.4 °F 32.0 °F 81% 30.18 in 10.0 mi South 8.1 mph - N/A   Clear